Time;durP1;ratioP1;P1;durP2;ratioP2;P2;SDS_P1;SDS_P2;PMS_P1;PMS_P2;Temp;Humidity;BMP_temperature;BMP_pressure;BME280_temperature;BME280_humidity;BME280_pressure;Samples;Min_cycle;Max_cycle;Signal;HPM_P1;HPM_P2
2022/08/30 00:01:07;;;;;;;4.50;3.00;;;23.70;56.50;;;-142.21;68.29;112049.66;5052419;28;20202;-75
2022/08/30 00:03:41;;;;;;;5.97;3.30;;;23.60;57.00;;;-142.21;68.67;112049.66;5051815;28;20207;-76
2022/08/30 00:06:09;;;;;;;4.23;3.00;;;23.60;57.20;;;-142.21;67.35;112049.66;5051998;28;20308;-76
2022/08/30 00:08:39;;;;;;;3.53;3.07;;;23.60;56.90;;;-142.21;68.81;112049.66;5051916;28;20203;-75
2022/08/30 00:11:14;;;;;;;3.50;2.93;;;23.60;57.30;;;-142.21;69.58;112049.66;5052688;28;20208;-75
2022/08/30 00:13:46;;;;;;;5.53;3.50;;;23.60;57.60;;;-142.21;70.61;112049.66;5051359;28;20198;-76
2022/08/30 00:16:14;;;;;;;4.47;3.37;;;23.50;57.90;;;-142.21;70.37;112049.66;5052712;28;20193;-76
2022/08/30 00:18:42;;;;;;;5.37;3.63;;;23.50;57.70;;;-142.21;69.16;112049.66;5051898;28;20202;-76
2022/08/30 00:21:10;;;;;;;4.00;3.03;;;23.50;57.50;;;-142.21;69.26;112049.66;5051943;28;20232;-76
2022/08/30 00:23:39;;;;;;;4.53;3.30;;;23.50;57.50;;;-142.21;68.81;112049.66;5051283;28;20212;-77
2022/08/30 00:26:07;;;;;;;4.87;3.47;;;23.40;57.20;;;-142.21;69.61;112049.66;5051098;28;20317;-76
2022/08/30 00:28:36;;;;;;;4.37;3.37;;;23.40;57.50;;;-142.21;69.34;112049.66;5051150;28;20217;-77
2022/08/30 00:31:06;;;;;;;4.20;3.23;;;23.40;57.40;;;-142.21;67.12;112049.66;5051815;28;20255;-76
2022/08/30 00:33:34;;;;;;;3.50;3.20;;;23.30;56.80;;;-142.21;67.50;112049.66;5051189;28;20300;-75
2022/08/30 00:36:01;;;;;;;3.33;2.57;;;23.30;56.80;;;-142.21;66.42;112049.66;5052018;28;20220;-76
2022/08/30 00:38:28;;;;;;;3.93;2.80;;;23.30;56.60;;;-142.21;67.77;112049.66;5051582;28;20686;-76
2022/08/30 00:40:56;;;;;;;3.50;2.70;;;23.30;57.00;;;-142.21;67.49;112049.66;5052107;28;20735;-76
2022/08/30 00:43:28;;;;;;;3.50;2.63;;;23.30;57.00;;;-142.21;67.26;112049.66;5052088;28;20207;-75
2022/08/30 00:45:55;;;;;;;3.50;3.20;;;23.30;57.60;;;-142.21;67.83;112049.66;5051401;28;20315;-76
2022/08/30 00:48:27;;;;;;;3.37;2.90;;;23.30;57.10;;;-142.21;67.83;112049.66;5051406;28;20212;-76
2022/08/30 00:50:59;;;;;;;4.27;3.20;;;23.30;57.10;;;-142.21;69.42;112049.66;5051139;28;20190;-75
2022/08/30 00:53:33;;;;;;;3.37;2.90;;;23.30;57.50;;;-142.21;68.95;112049.66;5051888;28;20280;-75
2022/08/30 00:56:02;;;;;;;3.63;3.03;;;23.30;57.50;;;-142.21;68.08;112049.66;5049977;28;20227;-76
2022/08/30 00:58:35;;;;;;;6.23;3.07;;;23.30;57.20;;;-142.21;69.72;112049.66;5051441;28;20257;-75
2022/08/30 01:01:05;;;;;;;3.33;3.03;;;23.30;57.60;;;-142.21;69.67;112049.66;5050791;28;20198;-78
2022/08/30 01:03:38;;;;;;;3.57;2.97;;;23.30;57.70;;;-142.21;68.67;112049.66;5050863;28;20286;-76
2022/08/30 01:06:06;;;;;;;4.73;3.07;;;23.30;57.60;;;-142.21;69.14;112049.66;5051357;28;20216;-74
2022/08/30 01:08:34;;;;;;;3.57;3.10;;;23.30;57.50;;;-142.21;68.95;112049.66;5039725;28;20202;-76
2022/08/30 01:11:03;;;;;;;4.47;2.90;;;23.30;57.60;;;-142.21;69.60;112049.66;5051260;28;20231;-75
2022/08/30 01:13:33;;;;;;;4.47;2.90;;;23.30;57.70;;;-142.21;68.76;112049.66;5050537;28;20291;-76
2022/08/30 01:16:01;;;;;;;4.10;2.77;;;23.30;57.60;;;-142.21;69.42;112049.66;5051257;28;20209;-75
2022/08/30 01:18:30;;;;;;;3.30;2.97;;;23.30;57.70;;;-142.21;69.58;112049.66;5055443;28;20206;-76
2022/08/30 01:21:09;;;;;;;4.27;2.97;;;23.30;57.70;;;-142.21;69.85;112049.66;5055533;28;20203;-75
2022/08/30 01:23:43;;;;;;;3.10;2.70;;;23.30;57.90;;;-142.21;68.32;112049.66;5039195;28;20239;-76
2022/08/30 01:26:13;;;;;;;3.20;2.90;;;23.30;57.50;;;-142.21;67.06;112049.66;5055451;28;20309;-74
2022/08/30 01:28:41;;;;;;;3.57;2.47;;;23.20;57.10;;;-142.21;66.70;112049.66;5049379;28;20201;-76
2022/08/30 01:31:09;;;;;;;3.10;2.40;;;23.20;57.00;;;-142.21;66.28;112049.66;5039398;28;20209;-75
2022/08/30 01:33:37;;;;;;;2.93;2.40;;;23.30;57.00;;;-142.21;66.15;112049.66;5054405;28;20288;-75
2022/08/30 01:36:11;;;;;;;3.70;2.60;;;23.20;56.80;;;-142.21;67.96;112049.66;5054312;28;20200;-76
2022/08/30 01:38:49;;;;;;;3.50;2.60;;;23.20;57.20;;;-142.21;69.70;112049.66;5034969;28;20225;-76
2022/08/30 01:41:20;;;;;;;4.23;2.70;;;23.30;57.90;;;-142.21;68.99;112049.66;5054773;28;20228;-76
2022/08/30 01:43:49;;;;;;;4.67;2.90;;;23.20;57.50;;;-142.21;68.25;112049.66;5054843;28;20281;-76
2022/08/30 01:46:22;;;;;;;3.07;2.77;;;23.20;57.40;;;-142.21;67.07;112049.66;5054520;28;20218;-76
2022/08/30 01:48:50;;;;;;;6.17;3.00;;;23.20;57.10;;;-142.21;65.17;112049.66;5054553;28;20205;-76
2022/08/30 01:51:17;;;;;;;4.63;2.53;;;23.10;56.60;;;-142.21;64.75;112049.66;5055351;28;20564;-75
2022/08/30 01:53:47;;;;;;;4.40;2.50;;;23.10;56.30;;;-142.21;65.21;112049.66;5052728;28;20198;-76
2022/08/30 01:56:15;;;;;;;3.17;2.50;;;23.10;56.50;;;-142.21;64.24;112049.66;5054780;28;20209;-76
2022/08/30 01:58:43;;;;;;;3.37;2.53;;;23.10;56.30;;;-142.21;64.55;112049.66;5053873;28;20233;-75
2022/08/30 02:01:14;;;;;;;5.93;2.50;;;23.10;56.30;;;-142.21;65.91;112049.66;5054826;28;20198;-75
2022/08/30 02:03:44;;;;;;;3.63;2.77;;;23.00;56.60;;;-142.21;67.53;112049.66;5054251;28;20229;-75
2022/08/30 02:06:16;;;;;;;4.27;3.00;;;23.00;57.10;;;-142.21;69.25;112049.66;5054888;28;20218;-75
2022/08/30 02:08:45;;;;;;;3.37;2.70;;;23.00;57.70;;;-142.21;70.49;112049.66;5054329;28;20296;-75
2022/08/30 02:11:13;;;;;;;2.53;2.33;;;23.00;58.00;;;-142.21;67.57;112049.66;5053429;28;20289;-75
2022/08/30 02:13:42;;;;;;;8.50;2.50;;;22.90;57.90;;;-142.21;67.20;112049.66;5053955;28;20229;-75
2022/08/30 02:16:16;;;;;;;2.57;2.30;;;22.90;57.20;;;-142.21;66.11;112049.66;5054756;28;20620;-75
2022/08/30 02:18:44;;;;;;;4.93;2.43;;;22.90;56.80;;;-142.21;64.90;112049.66;5070238;28;20700;-75
2022/08/30 02:21:13;;;;;;;5.60;2.30;;;22.90;56.50;;;-142.21;65.27;112049.66;5054327;28;20204;-75
2022/08/30 02:23:42;;;;;;;4.30;2.40;;;22.90;56.50;;;-142.21;65.67;112049.66;5031768;28;20206;-76
2022/08/30 02:26:12;;;;;;;3.63;2.57;;;22.80;56.60;;;-142.21;65.81;112049.66;5054517;28;20226;-77
2022/08/30 02:28:40;;;;;;;3.10;2.40;;;22.70;56.60;;;-142.21;65.47;112049.66;5053534;28;20225;-76
2022/08/30 02:31:07;;;;;;;3.43;2.50;;;22.80;56.60;;;-142.21;67.32;112049.66;5053454;28;20197;-75
2022/08/30 02:33:34;;;;;;;2.60;2.37;;;22.70;56.80;;;-142.21;68.13;112049.66;5054550;28;20304;-77
2022/08/30 02:36:02;;;;;;;3.53;2.70;;;22.70;57.00;;;-142.21;68.00;112049.66;5053727;28;20204;-77
2022/08/30 02:38:29;;;;;;;3.47;2.40;;;22.70;57.00;;;-142.21;68.25;112049.66;5054281;28;20206;-79
2022/08/30 02:40:57;;;;;;;2.93;2.33;;;22.70;57.20;;;-142.21;68.79;112049.66;5053052;28;20629;-75
2022/08/30 02:43:27;;;;;;;3.10;2.27;;;22.70;57.30;;;-142.21;68.07;112049.66;5054907;28;20292;-76
2022/08/30 02:45:56;;;;;;;3.70;2.77;;;22.60;57.10;;;-142.21;68.55;112049.66;5053929;28;20261;-77
2022/08/30 02:48:24;;;;;;;3.83;2.30;;;22.60;57.20;;;-142.21;68.72;112049.66;5055404;28;20233;-78
2022/08/30 02:50:52;;;;;;;5.17;2.70;;;22.60;57.90;;;-142.21;70.07;112049.66;5054084;28;20202;-76
2022/08/30 02:53:20;;;;;;;3.30;2.50;;;22.50;57.60;;;-142.21;71.49;112049.66;5053197;28;20201;-76
2022/08/30 02:55:49;;;;;;;2.90;2.43;;;22.50;58.10;;;-142.21;72.02;112049.66;5053904;28;20197;-78
2022/08/30 02:58:17;;;;;;;4.87;2.60;;;22.50;58.40;;;-142.21;72.35;112049.66;5054682;28;20320;-76
2022/08/30 03:00:46;;;;;;;7.27;2.67;;;22.40;58.40;;;-142.21;72.22;112049.66;5053825;28;20281;-77
2022/08/30 03:03:13;;;;;;;5.10;2.93;;;22.40;58.50;;;-142.21;72.41;112049.66;5062913;28;20237;-76
2022/08/30 03:05:40;;;;;;;5.80;3.40;;;22.40;58.50;;;-142.21;72.97;112049.66;5047833;28;20225;-78
2022/08/30 03:08:08;;;;;;;3.20;2.50;;;22.30;59.20;;;-142.21;73.12;112049.66;5062320;28;20289;-77
2022/08/30 03:10:37;;;;;;;3.93;2.70;;;22.30;58.80;;;-142.21;73.36;112049.66;5053810;28;20285;-77
2022/08/30 03:13:06;;;;;;;2.77;2.57;;;22.30;58.90;;;-142.21;73.87;112049.66;5052998;28;20208;-75
2022/08/30 03:15:34;;;;;;;3.90;2.70;;;22.30;59.10;;;-142.21;74.71;112049.66;5052440;28;20212;-78
2022/08/30 03:18:03;;;;;;;2.93;2.73;;;22.20;59.20;;;-142.21;74.58;112049.66;5053040;28;20230;-77
2022/08/30 03:20:30;;;;;;;3.47;2.70;;;22.20;59.30;;;-142.21;73.78;112049.66;5053054;28;20284;-78
2022/08/30 03:22:58;;;;;;;2.57;2.37;;;22.20;59.20;;;-142.21;73.95;112049.66;5052263;28;20734;-78
2022/08/30 03:25:25;;;;;;;7.07;2.93;;;22.20;59.20;;;-142.21;75.02;112049.66;5052191;28;20297;-78
2022/08/30 03:27:52;;;;;;;4.60;2.70;;;22.10;59.30;;;-142.21;74.37;112049.66;5051335;28;20778;-78
2022/08/30 03:30:21;;;;;;;3.13;2.70;;;22.10;59.20;;;-142.21;74.62;112049.66;5051648;28;20224;-75
2022/08/30 03:32:48;;;;;;;3.20;2.57;;;22.10;59.20;;;-142.21;75.33;112049.66;5052851;28;20241;-77
2022/08/30 03:35:17;;;;;;;3.57;2.90;;;22.20;59.50;;;-142.21;77.50;112049.66;5051705;28;20284;-77
2022/08/30 03:37:46;;;;;;;4.43;2.80;;;22.10;60.30;;;-142.21;76.18;112049.66;5051366;28;20217;-77
2022/08/30 03:40:17;;;;;;;3.10;2.80;;;22.10;59.90;;;-142.21;76.69;112049.66;5051723;28;20301;-77
2022/08/30 03:42:44;;;;;;;3.00;2.70;;;22.10;60.10;;;-142.21;76.84;112049.66;5052543;28;20276;-77
2022/08/30 03:45:14;;;;;;;8.13;3.30;;;22.10;60.00;;;-142.21;77.12;112049.66;5052264;28;20249;-78
2022/08/30 03:47:41;;;;;;;3.87;2.60;;;22.10;60.20;;;-142.21;77.68;112049.66;5052751;28;20308;-78
2022/08/30 03:50:10;;;;;;;3.23;2.93;;;22.10;60.60;;;-142.21;78.53;112049.66;5053102;28;20234;-78
2022/08/30 03:52:39;;;;;;;4.83;2.83;;;22.10;60.70;;;-142.21;78.35;112049.66;5052921;28;20236;-79
2022/08/30 03:55:07;;;;;;;3.20;2.73;;;22.10;60.80;;;-142.21;78.24;112049.66;5051698;28;20205;-78
2022/08/30 03:57:35;;;;;;;5.40;2.97;;;22.10;60.70;;;-142.21;77.67;112049.66;5052601;28;20237;-78
2022/08/30 04:00:04;;;;;;;2.83;2.63;;;22.10;60.60;;;-142.21;77.61;112049.66;5052030;28;20606;-79
2022/08/30 04:02:32;;;;;;;6.07;3.17;;;22.10;60.50;;;-142.21;77.52;112049.66;5052165;28;20674;-78
2022/08/30 04:04:59;;;;;;;2.90;2.60;;;22.00;60.20;;;-142.21;77.91;112049.66;5052250;28;20259;-78
2022/08/30 04:07:26;;;;;;;5.53;2.70;;;22.10;60.70;;;-142.21;77.91;112049.66;5052293;28;20674;-78
2022/08/30 04:09:56;;;;;;;6.70;2.60;;;22.00;60.60;;;-142.21;79.35;112049.66;5052095;28;20268;-78
2022/08/30 04:12:23;;;;;;;7.20;3.00;;;22.00;61.20;;;-142.21;79.56;112049.66;5052287;28;20229;-77
2022/08/30 04:14:50;;;;;;;6.80;3.23;;;22.00;61.30;;;-142.21;79.67;112049.66;5051488;28;20571;-77
2022/08/30 04:17:18;;;;;;;5.00;3.00;;;22.00;61.40;;;-142.21;78.43;112049.66;5052454;28;20550;-77
2022/08/30 04:19:45;;;;;;;3.13;2.67;;;22.00;61.00;;;-142.21;77.40;112049.66;5016998;28;20206;-77
2022/08/30 04:22:12;;;;;;;32.53;3.47;;;22.00;60.60;;;-142.21;78.27;112049.66;5052357;28;20606;-78
2022/08/30 04:24:40;;;;;;;3.47;2.43;;;22.00;60.80;;;-142.21;79.03;112049.66;5051727;28;20288;-77
2022/08/30 04:27:10;;;;;;;4.27;2.93;;;21.90;61.10;;;-142.21;78.69;112049.66;5051471;28;20230;-79
2022/08/30 04:29:37;;;;;;;4.17;2.77;;;21.90;61.00;;;-142.21;78.49;112049.66;5052106;28;20208;-79
2022/08/30 04:32:05;;;;;;;2.93;2.33;;;21.90;61.00;;;-142.21;78.84;112049.66;5051775;28;20210;-80
2022/08/30 04:34:32;;;;;;;2.90;2.57;;;21.90;61.30;;;-142.21;79.05;112049.66;5051902;28;20255;-79
2022/08/30 04:36:59;;;;;;;4.47;2.83;;;21.90;61.30;;;-142.21;80.02;112049.66;5051311;28;20282;-79
2022/08/30 04:39:26;;;;;;;7.03;2.67;;;21.80;61.50;;;-142.21;81.33;112049.66;5052318;28;20293;-79
2022/08/30 04:41:54;;;;;;;7.87;3.10;;;21.80;62.00;;;-142.21;81.79;112049.66;5051351;28;20289;-79
2022/08/30 04:44:26;;;;;;;5.30;2.97;;;21.80;62.40;;;-142.21;82.65;112049.66;5052158;28;20844;-78
2022/08/30 04:46:53;;;;;;;9.17;3.33;;;21.80;62.60;;;-142.21;81.85;112049.66;5050937;28;20737;-78
2022/08/30 04:49:21;;;;;;;18.20;6.23;;;21.80;62.50;;;-142.21;81.67;112049.66;5052576;28;20201;-78
2022/08/30 04:51:49;;;;;;;14.70;4.70;;;21.80;62.30;;;-142.21;83.56;112049.66;5050506;28;20686;-79
2022/08/30 04:54:16;;;;;;;5.90;2.90;;;21.80;63.20;;;-142.21;79.98;112049.66;5051510;28;20202;-78
2022/08/30 04:56:43;;;;;;;11.83;4.53;;;21.70;61.60;;;-142.21;81.92;112049.66;5051708;28;20236;-78
2022/08/30 04:59:12;;;;;;;3.43;2.80;;;21.70;62.50;;;-142.21;77.85;112049.66;5051400;28;20264;-77
2022/08/30 05:01:40;;;;;;;5.37;2.40;;;21.70;61.00;;;-142.21;79.21;112049.66;5051264;28;20574;-77
2022/08/30 05:04:07;;;;;;;4.97;2.80;;;21.80;61.30;;;-142.21;79.81;112049.66;5051538;28;20263;-76
2022/08/30 05:06:35;;;;;;;4.73;2.53;;;21.70;61.50;;;-142.21;79.44;112049.66;5051990;28;20313;-78
2022/08/30 05:09:02;;;;;;;3.10;2.80;;;21.70;61.10;;;-142.21;79.46;112049.66;5051177;28;20712;-78
2022/08/30 05:11:30;;;;;;;2.73;2.47;;;21.70;61.20;;;-142.21;80.79;112049.66;5051180;28;20248;-79
2022/08/30 05:13:57;;;;;;;5.47;2.60;;;21.70;62.70;;;-142.21;80.85;112049.66;5053099;28;20256;-75
2022/08/30 05:16:25;;;;;;;6.53;2.40;;;21.70;62.70;;;-142.21;79.90;112049.66;5051356;28;20226;-75
2022/08/30 05:18:54;;;;;;;4.87;2.53;;;21.70;61.60;;;-142.21;78.50;112049.66;5050775;28;20213;-77
2022/08/30 05:21:25;;;;;;;3.03;2.17;;;21.70;61.00;;;-142.21;76.99;112049.66;5051188;28;20296;-76
2022/08/30 05:23:55;;;;;;;3.53;2.57;;;21.70;60.70;;;-142.21;78.72;112049.66;5050511;28;20213;-77
2022/08/30 05:26:28;;;;;;;5.07;2.57;;;21.70;61.20;;;-142.21;78.24;112049.66;5051777;28;20248;-77
2022/08/30 05:28:56;;;;;;;3.30;2.37;;;21.70;61.10;;;-142.21;79.17;112049.66;5031303;28;20194;-75
2022/08/30 05:31:28;;;;;;;2.50;2.30;;;21.80;61.60;;;-142.21;79.50;112049.66;5032054;28;20210;-75
2022/08/30 05:33:59;;;;;;;3.20;2.73;;;21.80;61.60;;;-142.21;77.20;112049.66;5049874;28;20248;-75
2022/08/30 05:36:30;;;;;;;3.37;2.63;;;21.80;60.70;;;-142.21;76.50;112049.66;5051060;28;20244;-76
2022/08/30 05:38:59;;;;;;;4.93;2.60;;;21.80;60.50;;;-142.21;74.66;112049.66;5054189;28;20276;-74
2022/08/30 05:41:27;;;;;;;5.50;2.80;;;21.80;59.80;;;-142.21;73.69;112049.66;5061704;28;20288;-76
2022/08/30 05:43:56;;;;;;;4.17;2.80;;;21.90;59.60;;;-142.21;75.07;112049.66;5053186;28;20634;-77
2022/08/30 05:46:24;;;;;;;5.53;3.07;;;21.90;59.70;;;-142.21;77.81;112049.66;5056476;28;20230;-76
2022/08/30 05:48:52;;;;;;;5.20;2.80;;;21.90;60.30;;;-142.21;77.17;112049.66;5050243;28;20209;-77
2022/08/30 05:51:25;;;;;;;3.70;2.80;;;21.90;60.40;;;-142.21;77.31;112049.66;5055422;28;20198;-76
2022/08/30 05:53:56;;;;;;;5.43;2.83;;;21.90;60.50;;;-142.21;77.00;112049.66;5050934;28;20291;-75
2022/08/30 05:56:27;;;;;;;6.97;3.20;;;22.00;60.50;;;-142.21;77.16;112049.66;5051038;28;20190;-75
2022/08/30 05:58:55;;;;;;;3.77;2.60;;;22.00;60.60;;;-142.21;78.34;112049.66;5049834;28;20234;-74
2022/08/30 06:01:25;;;;;;;3.43;2.63;;;22.00;61.00;;;-142.21;78.49;112049.66;5051673;28;20244;-75
2022/08/30 06:03:55;;;;;;;4.53;2.53;;;22.00;61.20;;;-142.21;78.37;112049.66;5051091;28;20655;-75
2022/08/30 06:06:24;;;;;;;2.90;2.40;;;22.10;61.00;;;-142.21;78.17;112049.66;5054264;28;20277;-75
2022/08/30 06:08:52;;;;;;;4.77;2.67;;;22.20;61.00;;;-142.21;77.89;112049.66;5057522;28;20252;-74
2022/08/30 06:11:22;;;;;;;3.07;2.50;;;22.10;60.70;;;-142.21;78.38;112049.66;5055274;28;20202;-74
2022/08/30 06:13:52;;;;;;;3.00;2.70;;;22.20;60.80;;;-142.21;78.78;112049.66;5054707;28;20257;-74
2022/08/30 06:16:22;;;;;;;4.83;2.30;;;22.20;61.00;;;-142.21;79.32;112049.66;5055193;28;20198;-74
2022/08/30 06:18:50;;;;;;;3.90;2.20;;;22.20;61.20;;;-142.21;77.75;112049.66;5056189;28;20190;-76
2022/08/30 06:21:20;;;;;;;4.10;2.57;;;22.20;60.70;;;-142.21;77.63;112049.66;5054624;28;20201;-75
2022/08/30 06:23:50;;;;;;;3.60;2.47;;;22.30;60.70;;;-142.21;77.57;112049.66;5055172;28;20264;-74
2022/08/30 06:26:18;;;;;;;5.13;2.67;;;22.30;60.50;;;-142.21;78.24;112049.66;5055232;28;20198;-75
2022/08/30 06:28:45;;;;;;;3.77;2.43;;;22.40;60.80;;;-142.21;74.25;112049.66;5064585;28;20248;-75
2022/08/30 06:31:16;;;;;;;5.20;2.20;;;22.50;59.60;;;-142.21;73.23;112049.66;5072810;28;20209;-75
2022/08/30 06:33:44;;;;;;;6.33;2.60;;;22.60;59.30;;;-142.21;73.93;112049.66;5073222;28;20216;-74
2022/08/30 06:36:16;;;;;;;5.30;2.50;;;22.60;59.40;;;-142.21;74.24;112049.66;5070498;28;20210;-75
2022/08/30 06:38:44;;;;;;;3.43;2.63;;;22.70;59.50;;;-142.21;73.55;112049.66;5061898;28;20202;-75
2022/08/30 06:41:18;;;;;;;4.30;2.27;;;22.80;59.30;;;-142.21;73.28;112049.66;5054015;28;20206;-75
2022/08/30 06:43:46;;;;;;;2.47;2.27;;;22.90;59.20;;;-142.21;73.12;112049.66;5054170;28;20189;-75
2022/08/30 06:46:16;;;;;;;4.50;2.30;;;22.90;59.10;;;-142.21;72.27;112049.66;5053540;28;20230;-75
2022/08/30 06:48:44;;;;;;;4.73;2.70;;;23.00;58.80;;;-142.21;73.68;112049.66;5054294;28;20623;-75
2022/08/30 06:51:11;;;;;;;2.90;2.20;;;23.00;59.00;;;-142.21;72.51;112049.66;5053343;28;20300;-75
2022/08/30 06:53:39;;;;;;;3.47;2.60;;;23.10;58.80;;;-142.21;72.71;112049.66;5056076;28;20216;-75
2022/08/30 06:56:10;;;;;;;2.70;2.40;;;23.20;58.80;;;-142.21;72.18;112049.66;5059265;28;20240;-75
2022/08/30 06:58:40;;;;;;;3.57;2.33;;;23.30;58.90;;;-142.21;71.64;112049.66;5059630;28;20234;-75
2022/08/30 07:01:08;;;;;;;2.40;2.03;;;23.30;58.70;;;-142.21;71.19;112049.66;5058271;28;20269;-75
2022/08/30 07:03:36;;;;;;;3.53;2.50;;;23.40;58.50;;;-142.21;71.67;112049.66;5057223;28;20237;-76
2022/08/30 07:06:03;;;;;;;4.70;2.70;;;23.50;58.50;;;-142.21;72.04;112049.66;5053711;28;20206;-74
2022/08/30 07:08:31;;;;;;;3.03;2.43;;;23.50;58.60;;;-142.21;70.57;112049.66;5053877;28;20264;-75
2022/08/30 07:10:58;;;;;;;2.90;2.40;;;23.60;58.40;;;-142.21;69.52;112049.66;5053169;28;20209;-74
2022/08/30 07:13:27;;;;;;;5.90;2.70;;;23.60;58.60;;;-142.21;68.35;112049.66;5053538;28;20202;-75
2022/08/30 07:15:55;;;;;;;5.23;2.47;;;23.70;57.80;;;-142.21;67.36;112049.66;5053132;28;20217;-74
2022/08/30 07:21:11;;;;;;;6.23;2.63;;;23.90;57.60;;;-142.21;65.83;112049.66;5053016;28;20565;-74
2022/08/30 07:23:40;;;;;;;3.70;2.53;;;24.00;57.10;;;-142.21;68.95;112049.66;5053441;28;20212;-74
2022/08/30 07:26:11;;;;;;;2.60;2.13;;;24.00;57.60;;;-142.21;69.83;112049.66;5052855;28;20296;-76
2022/08/30 07:28:40;;;;;;;7.63;2.60;;;24.10;58.00;;;-142.21;68.24;112049.66;5053417;28;20282;-75
2022/08/30 07:31:11;;;;;;;5.77;3.03;;;24.10;57.70;;;-142.21;68.20;112049.66;5052718;28;20205;-75
2022/08/30 07:33:39;;;;;;;3.50;2.30;;;24.20;57.50;;;-142.21;68.06;112049.66;5053117;28;20213;-75
2022/08/30 07:36:08;;;;;;;3.17;2.60;;;24.30;57.40;;;-142.21;68.39;112049.66;5052961;28;20206;-74
2022/08/30 07:38:35;;;;;;;3.73;2.40;;;24.30;57.30;;;-142.21;67.41;112049.66;5053452;28;20210;-75
2022/08/30 07:41:03;;;;;;;3.60;2.60;;;24.40;57.20;;;-142.21;65.69;112049.66;5017555;28;20286;-75
2022/08/30 07:43:33;;;;;;;4.43;2.60;;;24.50;56.90;;;-142.21;65.12;112049.66;5018134;28;20286;-75
2022/08/30 07:46:03;;;;;;;4.50;2.57;;;24.70;56.70;;;-142.21;64.69;112049.66;5052420;28;20753;-75
2022/08/30 07:48:32;;;;;;;3.80;2.43;;;24.80;56.50;;;-142.21;64.01;112049.66;5052783;28;20298;-75
2022/08/30 07:50:59;;;;;;;3.60;2.57;;;24.90;56.30;;;-142.21;63.50;112049.66;5052349;28;20213;-75
2022/08/30 07:53:27;;;;;;;4.70;2.60;;;25.00;56.20;;;-142.21;62.88;112049.66;5053073;28;20241;-74
2022/08/30 07:55:54;;;;;;;3.83;2.50;;;25.20;56.00;;;-142.21;62.50;112049.66;5052827;28;20212;-76
2022/08/30 07:58:22;;;;;;;7.90;2.50;;;25.30;55.70;;;-142.21;62.23;112049.66;5053610;28;20225;-75
2022/08/30 08:00:49;;;;;;;5.27;2.53;;;25.30;55.60;;;-142.21;63.58;112049.66;5053013;28;20280;-75
2022/08/30 08:03:17;;;;;;;3.73;2.30;;;25.50;55.90;;;-142.21;61.79;112049.66;5051867;28;20221;-75
2022/08/30 08:05:47;;;;;;;7.70;3.40;;;25.60;55.40;;;-142.21;61.13;112049.66;5052940;28;20210;-75
2022/08/30 08:08:14;;;;;;;4.23;2.70;;;25.70;55.10;;;-142.21;61.90;112049.66;5052020;28;20229;-75
2022/08/30 08:10:43;;;;;;;3.37;2.63;;;25.70;55.20;;;-142.21;61.62;112049.66;5051232;28;20259;-75
2022/08/30 08:13:11;;;;;;;3.63;2.40;;;25.80;55.10;;;-142.21;60.95;112049.66;5052147;28;20251;-74
2022/08/30 08:15:39;;;;;;;2.80;2.47;;;25.90;55.00;;;-142.21;60.13;112049.66;5052685;28;20233;-74
2022/08/30 08:18:08;;;;;;;2.93;2.60;;;25.90;54.60;;;-142.21;60.88;112049.66;5052078;28;20206;-75
2022/08/30 08:20:36;;;;;;;5.50;2.43;;;26.00;54.70;;;-142.21;60.00;112049.66;5052278;28;20708;-74
2022/08/30 08:23:04;;;;;;;3.07;2.40;;;26.10;54.70;;;-142.21;60.78;112049.66;5052057;28;20241;-74
2022/08/30 08:25:32;;;;;;;4.63;2.63;;;26.10;54.70;;;-142.21;60.14;112049.66;5052008;28;20248;-76
2022/08/30 08:27:59;;;;;;;6.20;2.60;;;26.30;54.70;;;-142.21;60.50;112049.66;5051098;28;20232;-73
2022/08/30 08:30:26;;;;;;;4.17;2.90;;;26.40;54.70;;;-142.21;59.04;112049.66;5052391;28;20210;-73
2022/08/30 08:32:54;;;;;;;5.00;2.57;;;26.50;54.30;;;-142.21;59.33;112049.66;5052079;28;20292;-75
2022/08/30 08:35:21;;;;;;;5.47;2.90;;;26.60;54.50;;;-142.21;58.98;112049.66;5051451;28;20213;-75
2022/08/30 08:37:48;;;;;;;4.40;2.43;;;26.70;54.20;;;-142.21;59.00;112049.66;5052419;28;20198;-75
2022/08/30 08:40:20;;;;;;;3.27;2.97;;;26.80;54.10;;;-142.21;57.52;112049.66;5051455;28;20245;-75
2022/08/30 08:43:03;;;;;;;6.33;2.50;;;26.90;53.80;;;-142.21;58.07;112049.66;5052126;28;20650;-75
2022/08/30 08:45:49;;;;;;;2.87;2.57;;;27.00;54.10;;;-142.21;57.29;112049.66;5052156;28;20627;-75
2022/08/30 08:48:30;;;;;;;3.73;2.60;;;27.20;53.80;;;-142.21;55.11;112049.66;5051347;28;20667;-76
2022/08/30 08:53:56;;;;;;;3.53;2.83;;;27.40;53.20;;;-142.21;54.81;112049.66;5022329;28;20328;-74
2022/08/30 08:56:25;;;;;;;3.63;2.73;;;27.60;52.80;;;-142.21;54.11;112049.66;5051710;28;20721;-74
2022/08/30 08:58:55;;;;;;;5.23;2.70;;;27.70;52.80;;;-142.21;57.00;112049.66;5051664;28;20283;-74
2022/08/30 09:01:26;;;;;;;4.77;2.87;;;27.80;53.20;;;-142.21;57.26;112049.66;5051011;28;20211;-74
2022/08/30 09:03:55;;;;;;;5.23;3.03;;;27.90;53.50;;;-142.21;55.97;112049.66;5051817;28;20193;-73
2022/08/30 09:06:48;;;;;;;3.57;2.80;;;28.10;53.10;;;-142.21;54.56;112049.66;5051165;28;20209;-76
2022/08/30 09:09:18;;;;;;;4.03;3.23;;;28.10;52.40;;;-142.21;53.51;112049.66;5050939;28;20243;-76
2022/08/30 09:11:48;;;;;;;5.03;3.40;;;28.30;52.40;;;-142.21;50.42;112049.66;5051637;28;20196;-75
2022/08/30 09:14:21;;;;;;;3.97;3.03;;;28.40;51.50;;;-142.21;51.80;112049.66;5051025;28;20305;-74
2022/08/30 09:16:58;;;;;;;3.43;2.97;;;28.60;51.80;;;-142.21;51.59;112049.66;5051549;28;20209;-74
2022/08/30 09:19:34;;;;;;;4.00;3.17;;;28.60;51.60;;;-142.21;51.55;112049.66;5051660;28;20185;-75
2022/08/30 09:22:09;;;;;;;5.17;2.90;;;28.80;51.60;;;-142.21;49.00;112049.66;5051277;28;20199;-74
2022/08/30 09:24:43;;;;;;;3.53;3.07;;;28.90;50.90;;;-142.21;51.73;112049.66;5051463;28;20203;-75
2022/08/30 09:27:24;;;;;;;3.57;3.00;;;29.00;51.40;;;-142.21;51.38;112049.66;5050975;28;20195;-75
2022/08/30 09:30:03;;;;;;;3.97;3.40;;;29.20;51.40;;;-142.21;47.28;112049.66;5051558;28;20215;-74
2022/08/30 09:32:35;;;;;;;7.27;3.20;;;29.30;50.00;;;-142.21;50.03;112049.66;5051845;28;20193;-74
2022/08/30 09:35:06;;;;;;;4.20;3.10;;;29.50;50.80;;;-142.21;49.80;112049.66;5051072;28;20199;-74
2022/08/30 09:37:45;;;;;;;3.93;3.10;;;29.60;50.70;;;-142.21;50.34;112049.66;5052251;28;20246;-74
2022/08/30 09:40:24;;;;;;;4.47;2.90;;;29.80;50.80;;;-142.21;47.06;112049.66;5055109;28;20607;-75
2022/08/30 09:43:11;;;;;;;4.57;3.30;;;29.90;49.70;;;-142.21;48.45;112049.66;5055726;28;20250;-75
2022/08/30 09:45:42;;;;;;;4.43;3.20;;;30.10;49.90;;;-142.21;48.35;112049.66;5054998;28;20286;-75
2022/08/30 09:48:30;;;;;;;3.23;2.93;;;30.20;50.00;;;-142.21;47.11;112049.66;5054743;28;20263;-75
2022/08/30 09:51:29;;;;;;;3.40;3.10;;;30.40;49.10;;;-142.21;46.02;112049.66;5055501;28;20255;-75
2022/08/30 09:54:11;;;;;;;4.57;3.23;;;30.40;49.20;;;-142.21;46.56;112049.66;5045113;28;20266;-75
2022/08/30 09:56:50;;;;;;;3.30;2.90;;;30.50;48.90;;;-142.21;46.47;112049.66;5055037;28;20194;-75
2022/08/30 09:59:37;;;;;;;3.40;3.07;;;30.60;49.80;;;-142.21;44.62;112049.66;5021414;28;20225;-75
2022/08/30 10:02:30;;;;;;;6.47;3.60;;;30.80;48.10;;;-142.21;44.01;112049.66;5054311;28;20186;-74
2022/08/30 10:05:12;;;;;;;6.10;2.80;;;30.90;48.10;;;-142.21;44.08;112049.66;5058720;28;20224;-76
2022/08/30 10:07:58;;;;;;;6.53;3.30;;;31.00;48.10;;;-142.21;43.49;112049.66;5063549;28;20296;-75
2022/08/30 10:10:37;;;;;;;3.70;3.10;;;31.00;47.50;;;-142.21;43.42;112049.66;5054918;28;20225;-75
2022/08/30 10:13:28;;;;;;;4.30;3.20;;;31.00;47.40;;;-142.21;43.78;112049.66;5054452;28;20201;-75
2022/08/30 10:16:10;;;;;;;3.17;2.73;;;31.00;47.30;;;-142.21;43.69;112049.66;5022386;28;20259;-74
2022/08/30 10:18:51;;;;;;;3.10;2.80;;;31.10;47.30;;;-142.21;43.93;112049.66;5054742;28;20225;-75